KPHD/PHD METAR and TAF weather

Enter ICAO airport designator
Station Type Date Time Source
KPHD METAR 2020/07/11 00:53 UTC NOAA

KPHD 110053Z AUTO 00000KT 10SM BKN080 23/22 A2977 RMK AO2 RAE2355 SLP072 P0000 T02280217


Station Type Date Time Source
KPHD Decoded METAR 2020/07/11 00:53 UTC NOAA

NEW PHILADELPHIA CLEVER FLD, OH, United States (KPHD) 40-28N 81-25W 272M
Jul 10, 2020 - 08:53 PM EDT / 2020.07.11 0053 UTC
Wind: Calm:0
Visibility: 10 mile(s):0
Sky conditions: mostly cloudy
Precipitation last hour: A trace
Temperature: 73.0 F (22.8 C)
Dew Point: 71.1 F (21.7 C)
Relative Humidity: 93%
Pressure (altimeter): 29.77 in. Hg (1008 hPa)
ob: KPHD 110053Z AUTO 00000KT 10SM BKN080 23/22 A2977 RMK AO2 RAE2355 SLP072 P0000 T02280217
cycle: 1

Station Type Date Time Source
KPHD TAF UTC NOAA

Error!

Example: see airport list